Hobart, IN (46342)

8:07 PM CDT on August 02, 2015 (GMT -0500)
BarringtonRidge | | Change Station
CLOSE
Current Station
Personal Weather Station
Location: Hobart, IN
Elevation: 654 ft
Nearby Weather Stations

Elev 654 ft 41.51 °N, 87.25 °W | Updated 4 seconds ago

Clear
Clear
83.5 °F
Feels Like 83 °F
N
6.7
Wind Variable Wind from SW
Gusts 12.0 mph

Today
High -- | Low -- °F
--% Chance of Precip.
Yesterday
High -- | Low -- °F
Precip. -- in
5:44 AM 8:05 PM
Waning Gibbous, 90% visible
Pressure 29.70 in
Visibility 12.0 miles
Clouds Scattered Clouds 15000 ft
Heat Index 83 °F
Dew Point 57 °F
Humidity 41%
Rainfall 0.00 in
Snow Depth Not available.
UV 0 out of 12
Pollen 8.00 out of 12
Air Quality Not available.
Flu Activity Not available.
METAR KGYY 030045Z 21014G34KT 12SM SCT150 30/21 A2970

More Conditions Fewer Conditions

Pressure 29.70 in
Visibility 12.0 miles
Clouds Scattered Clouds 15000 ft
Heat Index 83 °F
Dew Point 57 °F
Humidity 41%
Rainfall 0.00 in
Snow Depth Not available.
UV 0 out of 12
Pollen 8.00 out of 12
Air Quality Not available.
Flu Activity Not available.
METAR KGYY 030045Z 21014G34KT 12SM SCT150 30/21 A2970

More Conditions Fewer Conditions

10-Day Weather Forecast

×

Almanac

Astronomy

Aug. 02, 2015 Rise Set
Actual Time
Civil Twilight
Nautical Twilight
Astronomical Twilight
Moon
Length of Visible Light
Length of Day
Tomorrow will be .
, % of the Moon is Illuminated

Today's Extremes

State Highs State Lows

Community

WunderPhotos

Upload Photos

1,843,484 photos uploaded!

WunderBlogs® & News

Nearby

Air Quality

  Air Quality AQ Index Pollutant
Not available.

Snow Depth

Station Depth Elevation

Earthquake Activity

City Distance Mag. Time & Date
Minimum magnitude displayed is 2.5.

Coastal Water Temperatures

Place Temperature

Stations

Nearby Weather Stations

Station Location Temp. Windchill Dew Point Humidity Wind Precip. Elev Updated Type